sensor_id;sensor_type;location;lat;lon;timestamp;P1;durP1;ratioP1;P2;durP2;ratioP2
45392;SDS011;31129;44.810;10.334;2022-11-04T00:01:01;174.18;;;78.50;;
45392;SDS011;31129;44.810;10.334;2022-11-04T00:03:29;168.75;;;78.10;;
45392;SDS011;31129;44.810;10.334;2022-11-04T00:05:54;170.05;;;79.68;;
45392;SDS011;31129;44.810;10.334;2022-11-04T00:08:20;168.07;;;78.70;;
45392;SDS011;31129;44.810;10.334;2022-11-04T00:10:52;175.00;;;79.00;;
45392;SDS011;31129;44.810;10.334;2022-11-04T00:13:40;176.77;;;79.00;;
45392;SDS011;31129;44.810;10.334;2022-11-04T00:16:06;171.45;;;78.13;;
45392;SDS011;31129;44.810;10.334;2022-11-04T00:18:51;170.52;;;77.65;;
45392;SDS011;31129;44.810;10.334;2022-11-04T00:21:16;174.48;;;80.55;;
45392;SDS011;31129;44.810;10.334;2022-11-04T00:24:00;173.95;;;80.15;;
45392;SDS011;31129;44.810;10.334;2022-11-04T00:26:45;170.38;;;76.93;;
45392;SDS011;31129;44.810;10.334;2022-11-04T00:29:28;172.95;;;78.30;;
45392;SDS011;31129;44.810;10.334;2022-11-04T00:31:54;170.20;;;76.93;;
45392;SDS011;31129;44.810;10.334;2022-11-04T00:34:38;168.40;;;77.13;;
45392;SDS011;31129;44.810;10.334;2022-11-04T00:37:04;167.27;;;75.60;;
45392;SDS011;31129;44.810;10.334;2022-11-04T00:39:30;164.13;;;77.50;;
45392;SDS011;31129;44.810;10.334;2022-11-04T00:41:56;171.65;;;78.22;;
45392;SDS011;31129;44.810;10.334;2022-11-04T00:44:22;167.65;;;77.47;;
45392;SDS011;31129;44.810;10.334;2022-11-04T00:46:47;150.02;;;75.55;;
45392;SDS011;31129;44.810;10.334;2022-11-04T00:49:13;155.95;;;77.72;;
45392;SDS011;31129;44.810;10.334;2022-11-04T00:51:38;159.00;;;74.22;;
45392;SDS011;31129;44.810;10.334;2022-11-04T00:54:04;163.57;;;75.85;;
45392;SDS011;31129;44.810;10.334;2022-11-04T00:56:30;160.13;;;75.95;;
45392;SDS011;31129;44.810;10.334;2022-11-04T00:58:57;162.75;;;73.78;;
45392;SDS011;31129;44.810;10.334;2022-11-04T01:01:23;157.35;;;76.60;;
45392;SDS011;31129;44.810;10.334;2022-11-04T01:03:49;154.63;;;73.80;;
45392;SDS011;31129;44.810;10.334;2022-11-04T01:06:16;155.85;;;74.15;;
45392;SDS011;31129;44.810;10.334;2022-11-04T01:08:43;160.90;;;76.35;;
45392;SDS011;31129;44.810;10.334;2022-11-04T01:11:09;169.70;;;75.82;;
45392;SDS011;31129;44.810;10.334;2022-11-04T01:13:35;165.23;;;75.63;;
45392;SDS011;31129;44.810;10.334;2022-11-04T01:16:02;154.70;;;74.85;;
45392;SDS011;31129;44.810;10.334;2022-11-04T01:20:59;169.05;;;77.97;;
45392;SDS011;31129;44.810;10.334;2022-11-04T01:23:25;178.88;;;81.45;;
45392;SDS011;31129;44.810;10.334;2022-11-04T01:25:51;173.55;;;81.45;;
45392;SDS011;31129;44.810;10.334;2022-11-04T01:28:17;171.68;;;81.40;;
45392;SDS011;31129;44.810;10.334;2022-11-04T01:30:43;179.43;;;81.40;;
45392;SDS011;31129;44.810;10.334;2022-11-04T01:33:08;183.65;;;80.78;;
45392;SDS011;31129;44.810;10.334;2022-11-04T01:35:34;180.25;;;83.18;;
45392;SDS011;31129;44.810;10.334;2022-11-04T01:37:59;177.88;;;82.07;;
45392;SDS011;31129;44.810;10.334;2022-11-04T01:40:25;170.10;;;80.47;;
45392;SDS011;31129;44.810;10.334;2022-11-04T01:42:51;183.45;;;83.00;;
45392;SDS011;31129;44.810;10.334;2022-11-04T01:45:17;172.68;;;81.82;;
45392;SDS011;31129;44.810;10.334;2022-11-04T01:48:04;174.98;;;83.35;;
45392;SDS011;31129;44.810;10.334;2022-11-04T01:50:33;167.25;;;80.30;;
45392;SDS011;31129;44.810;10.334;2022-11-04T01:53:11;179.55;;;80.63;;
45392;SDS011;31129;44.810;10.334;2022-11-04T01:55:43;164.55;;;81.40;;
45392;SDS011;31129;44.810;10.334;2022-11-04T01:58:52;181.95;;;83.10;;
45392;SDS011;31129;44.810;10.334;2022-11-04T02:01:22;182.45;;;82.63;;
45392;SDS011;31129;44.810;10.334;2022-11-04T02:03:49;172.48;;;81.45;;
45392;SDS011;31129;44.810;10.334;2022-11-04T02:06:18;178.27;;;82.63;;
45392;SDS011;31129;44.810;10.334;2022-11-04T02:08:46;184.20;;;84.07;;
45392;SDS011;31129;44.810;10.334;2022-11-04T02:11:12;177.52;;;81.00;;
45392;SDS011;31129;44.810;10.334;2022-11-04T02:13:58;173.10;;;81.55;;
45392;SDS011;31129;44.810;10.334;2022-11-04T02:16:37;186.35;;;85.00;;
45392;SDS011;31129;44.810;10.334;2022-11-04T02:19:13;177.40;;;83.03;;
45392;SDS011;31129;44.810;10.334;2022-11-04T02:30:13;193.88;;;85.93;;
45392;SDS011;31129;44.810;10.334;2022-11-04T02:35:20;193.15;;;85.80;;
45392;SDS011;31129;44.810;10.334;2022-11-04T02:40:31;183.98;;;85.90;;
45392;SDS011;31129;44.810;10.334;2022-11-04T02:53:19;187.60;;;87.85;;
45392;SDS011;31129;44.810;10.334;2022-11-04T02:55:50;178.68;;;81.10;;
45392;SDS011;31129;44.810;10.334;2022-11-04T02:58:24;179.23;;;82.63;;
45392;SDS011;31129;44.810;10.334;2022-11-04T03:00:55;174.98;;;82.28;;
45392;SDS011;31129;44.810;10.334;2022-11-04T03:03:27;175.15;;;82.78;;
45392;SDS011;31129;44.810;10.334;2022-11-04T03:05:57;179.65;;;77.25;;
45392;SDS011;31129;44.810;10.334;2022-11-04T03:08:37;188.65;;;82.38;;
45392;SDS011;31129;44.810;10.334;2022-11-04T03:11:22;216.75;;;89.15;;
45392;SDS011;31129;44.810;10.334;2022-11-04T03:16:36;236.55;;;92.03;;
45392;SDS011;31129;44.810;10.334;2022-11-04T03:19:13;220.98;;;88.65;;
45392;SDS011;31129;44.810;10.334;2022-11-04T03:21:54;209.35;;;84.97;;
45392;SDS011;31129;44.810;10.334;2022-11-04T03:24:23;205.68;;;81.88;;
45392;SDS011;31129;44.810;10.334;2022-11-04T03:26:58;202.45;;;77.43;;
45392;SDS011;31129;44.810;10.334;2022-11-04T03:29:45;179.95;;;72.85;;
45392;SDS011;31129;44.810;10.334;2022-11-04T03:35:11;160.45;;;68.47;;
45392;SDS011;31129;44.810;10.334;2022-11-04T03:37:40;162.80;;;67.05;;
45392;SDS011;31129;44.810;10.334;2022-11-04T03:40:06;157.95;;;66.50;;
45392;SDS011;31129;44.810;10.334;2022-11-04T03:42:33;168.90;;;68.28;;
45392;SDS011;31129;44.810;10.334;2022-11-04T03:45:04;166.77;;;67.93;;
45392;SDS011;31129;44.810;10.334;2022-11-04T03:47:30;163.52;;;65.97;;
45392;SDS011;31129;44.810;10.334;2022-11-04T03:50:06;154.90;;;67.47;;
45392;SDS011;31129;44.810;10.334;2022-11-04T03:53:06;148.68;;;63.13;;
45392;SDS011;31129;44.810;10.334;2022-11-04T03:55:38;152.95;;;67.10;;
45392;SDS011;31129;44.810;10.334;2022-11-04T04:02:16;147.32;;;65.35;;
45392;SDS011;31129;44.810;10.334;2022-11-04T04:04:37;147.27;;;61.83;;
45392;SDS011;31129;44.810;10.334;2022-11-04T04:09:44;158.15;;;63.75;;
45392;SDS011;31129;44.810;10.334;2022-11-04T04:12:25;145.38;;;61.85;;
45392;SDS011;31129;44.810;10.334;2022-11-04T04:15:06;139.20;;;61.65;;
45392;SDS011;31129;44.810;10.334;2022-11-04T04:17:57;130.85;;;58.15;;
45392;SDS011;31129;44.810;10.334;2022-11-04T04:20:27;134.82;;;59.42;;
45392;SDS011;31129;44.810;10.334;2022-11-04T04:22:55;122.68;;;55.75;;
45392;SDS011;31129;44.810;10.334;2022-11-04T04:25:26;112.45;;;52.75;;
45392;SDS011;31129;44.810;10.334;2022-11-04T04:28:12;101.03;;;49.33;;
45392;SDS011;31129;44.810;10.334;2022-11-04T04:30:41;91.90;;;46.08;;
45392;SDS011;31129;44.810;10.334;2022-11-04T04:33:08;92.30;;;46.17;;
45392;SDS011;31129;44.810;10.334;2022-11-04T04:35:42;86.35;;;42.00;;
45392;SDS011;31129;44.810;10.334;2022-11-04T04:44:00;74.43;;;37.42;;
45392;SDS011;31129;44.810;10.334;2022-11-04T04:46:45;72.80;;;37.28;;
45392;SDS011;31129;44.810;10.334;2022-11-04T04:49:13;67.20;;;37.30;;
45392;SDS011;31129;44.810;10.334;2022-11-04T04:51:43;61.50;;;32.95;;
45392;SDS011;31129;44.810;10.334;2022-11-04T04:54:11;55.40;;;31.45;;
45392;SDS011;31129;44.810;10.334;2022-11-04T04:56:37;52.58;;;30.45;;
45392;SDS011;31129;44.810;10.334;2022-11-04T04:59:02;49.75;;;29.77;;
45392;SDS011;31129;44.810;10.334;2022-11-04T05:01:28;50.78;;;28.88;;
45392;SDS011;31129;44.810;10.334;2022-11-04T05:03:53;47.55;;;27.27;;
45392;SDS011;31129;44.810;10.334;2022-11-04T05:06:19;50.25;;;28.77;;
45392;SDS011;31129;44.810;10.334;2022-11-04T05:08:44;51.03;;;29.30;;
45392;SDS011;31129;44.810;10.334;2022-11-04T05:11:10;48.88;;;26.48;;
45392;SDS011;31129;44.810;10.334;2022-11-04T05:13:36;44.10;;;26.65;;
45392;SDS011;31129;44.810;10.334;2022-11-04T05:16:02;46.05;;;25.88;;
45392;SDS011;31129;44.810;10.334;2022-11-04T05:18:32;39.15;;;23.80;;
45392;SDS011;31129;44.810;10.334;2022-11-04T05:21:02;41.40;;;23.55;;
45392;SDS011;31129;44.810;10.334;2022-11-04T05:23:29;37.53;;;21.45;;
45392;SDS011;31129;44.810;10.334;2022-11-04T05:25:56;32.50;;;22.08;;
45392;SDS011;31129;44.810;10.334;2022-11-04T05:30:48;31.33;;;19.45;;
45392;SDS011;31129;44.810;10.334;2022-11-04T05:33:13;36.03;;;19.77;;
45392;SDS011;31129;44.810;10.334;2022-11-04T05:35:39;28.30;;;17.55;;
45392;SDS011;31129;44.810;10.334;2022-11-04T05:38:04;24.50;;;16.50;;
45392;SDS011;31129;44.810;10.334;2022-11-04T05:40:30;25.95;;;7.35;;
45392;SDS011;31129;44.810;10.334;2022-11-04T05:42:56;4.38;;;2.85;;
45392;SDS011;31129;44.810;10.334;2022-11-04T05:45:23;1.00;;;1.00;;
45392;SDS011;31129;44.810;10.334;2022-11-04T05:47:52;0.63;;;0.63;;
45392;SDS011;31129;44.810;10.334;2022-11-04T05:50:21;0.40;;;0.40;;
45392;SDS011;31129;44.810;10.334;2022-11-04T05:52:46;2.10;;;0.43;;
45392;SDS011;31129;44.810;10.334;2022-11-04T05:55:12;4.07;;;0.60;;
45392;SDS011;31129;44.810;10.334;2022-11-04T05:57:37;1.75;;;0.50;;
45392;SDS011;31129;44.810;10.334;2022-11-04T06:00:03;1.48;;;0.40;;
45392;SDS011;31129;44.810;10.334;2022-11-04T06:02:30;2.47;;;0.60;;
45392;SDS011;31129;44.810;10.334;2022-11-04T06:04:55;5.10;;;0.60;;
45392;SDS011;31129;44.810;10.334;2022-11-04T06:07:21;2.22;;;0.70;;
45392;SDS011;31129;44.810;10.334;2022-11-04T06:09:46;1.77;;;0.40;;
45392;SDS011;31129;44.810;10.334;2022-11-04T06:12:12;1.33;;;0.47;;
45392;SDS011;31129;44.810;10.334;2022-11-04T06:14:40;4.28;;;0.40;;
45392;SDS011;31129;44.810;10.334;2022-11-04T06:17:06;2.38;;;0.30;;
45392;SDS011;31129;44.810;10.334;2022-11-04T06:19:33;1.00;;;0.40;;
45392;SDS011;31129;44.810;10.334;2022-11-04T06:21:58;3.03;;;0.50;;
45392;SDS011;31129;44.810;10.334;2022-11-04T06:24:24;0.30;;;0.30;;
45392;SDS011;31129;44.810;10.334;2022-11-04T06:26:50;2.08;;;0.50;;
45392;SDS011;31129;44.810;10.334;2022-11-04T06:29:16;2.88;;;0.80;;
45392;SDS011;31129;44.810;10.334;2022-11-04T06:31:41;1.85;;;0.47;;
45392;SDS011;31129;44.810;10.334;2022-11-04T06:34:07;2.45;;;0.52;;
45392;SDS011;31129;44.810;10.334;2022-11-04T06:36:32;3.80;;;0.40;;
45392;SDS011;31129;44.810;10.334;2022-11-04T06:38:58;4.47;;;0.50;;
45392;SDS011;31129;44.810;10.334;2022-11-04T06:41:23;5.05;;;0.57;;
45392;SDS011;31129;44.810;10.334;2022-11-04T06:43:49;3.92;;;0.98;;
45392;SDS011;31129;44.810;10.334;2022-11-04T06:46:24;3.40;;;0.43;;
45392;SDS011;31129;44.810;10.334;2022-11-04T06:49:01;1.90;;;0.82;;
45392;SDS011;31129;44.810;10.334;2022-11-04T06:51:27;0.40;;;0.40;;
45392;SDS011;31129;44.810;10.334;2022-11-04T06:53:53;2.17;;;0.50;;
45392;SDS011;31129;44.810;10.334;2022-11-04T06:56:18;0.55;;;0.30;;
45392;SDS011;31129;44.810;10.334;2022-11-04T06:58:50;1.58;;;0.50;;
45392;SDS011;31129;44.810;10.334;2022-11-04T07:01:17;2.53;;;0.45;;
45392;SDS011;31129;44.810;10.334;2022-11-04T07:03:47;0.40;;;0.40;;
45392;SDS011;31129;44.810;10.334;2022-11-04T07:06:14;5.50;;;0.63;;
45392;SDS011;31129;44.810;10.334;2022-11-04T07:08:39;5.40;;;0.70;;
45392;SDS011;31129;44.810;10.334;2022-11-04T07:11:05;2.00;;;0.35;;
45392;SDS011;31129;44.810;10.334;2022-11-04T07:13:31;0.95;;;0.43;;
45392;SDS011;31129;44.810;10.334;2022-11-04T07:15:56;0.45;;;0.40;;
45392;SDS011;31129;44.810;10.334;2022-11-04T07:18:22;0.77;;;0.30;;
45392;SDS011;31129;44.810;10.334;2022-11-04T07:20:47;2.22;;;0.38;;
45392;SDS011;31129;44.810;10.334;2022-11-04T07:23:13;0.40;;;0.40;;
45392;SDS011;31129;44.810;10.334;2022-11-04T07:25:39;0.57;;;0.47;;
45392;SDS011;31129;44.810;10.334;2022-11-04T07:28:04;3.45;;;0.40;;
45392;SDS011;31129;44.810;10.334;2022-11-04T07:30:30;0.50;;;0.40;;
45392;SDS011;31129;44.810;10.334;2022-11-04T07:32:55;3.08;;;0.60;;
45392;SDS011;31129;44.810;10.334;2022-11-04T07:35:24;0.28;;;0.28;;
45392;SDS011;31129;44.810;10.334;2022-11-04T07:37:49;2.58;;;0.30;;
45392;SDS011;31129;44.810;10.334;2022-11-04T07:40:15;0.63;;;0.30;;
45392;SDS011;31129;44.810;10.334;2022-11-04T07:42:40;1.80;;;0.30;;
45392;SDS011;31129;44.810;10.334;2022-11-04T07:45:14;0.68;;;0.43;;
45392;SDS011;31129;44.810;10.334;2022-11-04T07:47:39;0.47;;;0.30;;
45392;SDS011;31129;44.810;10.334;2022-11-04T07:50:05;0.30;;;0.30;;
45392;SDS011;31129;44.810;10.334;2022-11-04T07:52:30;2.30;;;0.30;;
45392;SDS011;31129;44.810;10.334;2022-11-04T07:54:56;2.60;;;0.50;;
45392;SDS011;31129;44.810;10.334;2022-11-04T07:57:21;0.63;;;0.40;;
45392;SDS011;31129;44.810;10.334;2022-11-04T07:59:47;1.65;;;0.30;;
45392;SDS011;31129;44.810;10.334;2022-11-04T08:02:12;2.47;;;0.38;;
45392;SDS011;31129;44.810;10.334;2022-11-04T08:04:38;2.30;;;0.40;;
45392;SDS011;31129;44.810;10.334;2022-11-04T08:07:06;0.80;;;0.60;;
45392;SDS011;31129;44.810;10.334;2022-11-04T08:09:32;1.40;;;0.50;;
45392;SDS011;31129;44.810;10.334;2022-11-04T08:11:58;0.38;;;0.30;;
45392;SDS011;31129;44.810;10.334;2022-11-04T08:14:23;1.15;;;0.50;;
45392;SDS011;31129;44.810;10.334;2022-11-04T08:16:49;0.30;;;0.30;;
45392;SDS011;31129;44.810;10.334;2022-11-04T08:19:15;0.30;;;0.30;;
45392;SDS011;31129;44.810;10.334;2022-11-04T08:21:41;1.83;;;0.38;;
45392;SDS011;31129;44.810;10.334;2022-11-04T08:24:06;0.82;;;0.30;;
45392;SDS011;31129;44.810;10.334;2022-11-04T08:26:32;0.80;;;0.30;;
45392;SDS011;31129;44.810;10.334;2022-11-04T08:28:58;1.98;;;0.65;;
45392;SDS011;31129;44.810;10.334;2022-11-04T08:31:26;0.30;;;0.30;;
45392;SDS011;31129;44.810;10.334;2022-11-04T08:33:54;0.63;;;0.30;;
45392;SDS011;31129;44.810;10.334;2022-11-04T08:36:21;0.20;;;0.20;;
45392;SDS011;31129;44.810;10.334;2022-11-04T08:38:47;0.20;;;0.20;;
45392;SDS011;31129;44.810;10.334;2022-11-04T08:41:14;0.30;;;0.30;;
45392;SDS011;31129;44.810;10.334;2022-11-04T08:43:41;0.30;;;0.30;;
45392;SDS011;31129;44.810;10.334;2022-11-04T08:46:07;1.95;;;0.30;;
45392;SDS011;31129;44.810;10.334;2022-11-04T08:48:35;0.30;;;0.30;;
45392;SDS011;31129;44.810;10.334;2022-11-04T08:51:02;0.28;;;0.28;;
45392;SDS011;31129;44.810;10.334;2022-11-04T08:53:32;0.95;;;0.30;;
45392;SDS011;31129;44.810;10.334;2022-11-04T08:55:57;0.93;;;0.30;;
45392;SDS011;31129;44.810;10.334;2022-11-04T08:58:23;0.32;;;0.30;;
45392;SDS011;31129;44.810;10.334;2022-11-04T09:00:50;2.17;;;0.20;;
45392;SDS011;31129;44.810;10.334;2022-11-04T09:03:16;0.40;;;0.25;;
45392;SDS011;31129;44.810;10.334;2022-11-04T09:05:42;0.50;;;0.20;;
45392;SDS011;31129;44.810;10.334;2022-11-04T09:10:43;1.30;;;0.30;;
45392;SDS011;31129;44.810;10.334;2022-11-04T09:13:09;0.47;;;0.20;;
45392;SDS011;31129;44.810;10.334;2022-11-04T09:15:38;0.47;;;0.30;;
45392;SDS011;31129;44.810;10.334;2022-11-04T09:18:04;0.40;;;0.40;;
45392;SDS011;31129;44.810;10.334;2022-11-04T09:20:30;0.32;;;0.32;;
45392;SDS011;31129;44.810;10.334;2022-11-04T09:22:56;0.20;;;0.20;;
45392;SDS011;31129;44.810;10.334;2022-11-04T09:25:22;0.20;;;0.20;;
45392;SDS011;31129;44.810;10.334;2022-11-04T09:27:47;0.52;;;0.32;;
45392;SDS011;31129;44.810;10.334;2022-11-04T09:30:13;0.88;;;0.30;;
45392;SDS011;31129;44.810;10.334;2022-11-04T09:32:38;0.38;;;0.30;;
45392;SDS011;31129;44.810;10.334;2022-11-04T09:35:04;1.20;;;0.32;;
45392;SDS011;31129;44.810;10.334;2022-11-04T09:37:30;14.57;;;1.20;;
45392;SDS011;31129;44.810;10.334;2022-11-04T09:39:56;0.90;;;0.40;;
45392;SDS011;31129;44.810;10.334;2022-11-04T09:44:54;2.17;;;0.40;;
45392;SDS011;31129;44.810;10.334;2022-11-04T09:47:25;4.45;;;0.60;;
45392;SDS011;31129;44.810;10.334;2022-11-04T09:49:52;13.85;;;1.95;;
45392;SDS011;31129;44.810;10.334;2022-11-04T09:52:29;2.38;;;0.55;;
45392;SDS011;31129;44.810;10.334;2022-11-04T09:57:42;11.23;;;1.02;;
45392;SDS011;31129;44.810;10.334;2022-11-04T10:00:14;1.13;;;0.35;;
45392;SDS011;31129;44.810;10.334;2022-11-04T10:11:10;0.22;;;0.22;;
45392;SDS011;31129;44.810;10.334;2022-11-04T10:16:40;1.38;;;0.25;;
45392;SDS011;31129;44.810;10.334;2022-11-04T10:19:34;7.82;;;1.65;;
45392;SDS011;31129;44.810;10.334;2022-11-04T10:22:10;0.30;;;0.30;;
45392;SDS011;31129;44.810;10.334;2022-11-04T10:27:28;0.20;;;0.20;;
45392;SDS011;31129;44.810;10.334;2022-11-04T10:29:58;0.28;;;0.28;;
45392;SDS011;31129;44.810;10.334;2022-11-04T10:32:28;0.30;;;0.30;;
45392;SDS011;31129;44.810;10.334;2022-11-04T10:35:01;1.23;;;0.30;;
45392;SDS011;31129;44.810;10.334;2022-11-04T10:37:33;2.92;;;0.30;;
45392;SDS011;31129;44.810;10.334;2022-11-04T10:40:01;0.35;;;0.35;;
45392;SDS011;31129;44.810;10.334;2022-11-04T10:42:40;0.20;;;0.20;;
45392;SDS011;31129;44.810;10.334;2022-11-04T10:45:09;0.63;;;0.30;;
45392;SDS011;31129;44.810;10.334;2022-11-04T10:50:25;0.80;;;0.20;;
45392;SDS011;31129;44.810;10.334;2022-11-04T10:55:38;0.25;;;0.25;;
45392;SDS011;31129;44.810;10.334;2022-11-04T10:58:30;0.30;;;0.30;;
45392;SDS011;31129;44.810;10.334;2022-11-04T11:00:58;0.20;;;0.20;;
45392;SDS011;31129;44.810;10.334;2022-11-04T11:03:28;0.30;;;0.30;;
45392;SDS011;31129;44.810;10.334;2022-11-04T11:08:41;1.25;;;0.30;;
45392;SDS011;31129;44.810;10.334;2022-11-04T11:11:08;0.32;;;0.30;;
45392;SDS011;31129;44.810;10.334;2022-11-04T11:13:35;0.75;;;0.20;;
45392;SDS011;31129;44.810;10.334;2022-11-04T11:16:04;0.55;;;0.30;;
45392;SDS011;31129;44.810;10.334;2022-11-04T11:18:31;0.30;;;0.30;;
45392;SDS011;31129;44.810;10.334;2022-11-04T11:21:05;0.40;;;0.40;;
45392;SDS011;31129;44.810;10.334;2022-11-04T11:26:07;0.47;;;0.20;;
45392;SDS011;31129;44.810;10.334;2022-11-04T11:28:37;0.63;;;0.20;;
45392;SDS011;31129;44.810;10.334;2022-11-04T11:31:06;4.68;;;0.40;;
45392;SDS011;31129;44.810;10.334;2022-11-04T11:33:39;0.20;;;0.20;;
45392;SDS011;31129;44.810;10.334;2022-11-04T11:38:38;0.70;;;0.30;;
45392;SDS011;31129;44.810;10.334;2022-11-04T11:41:15;0.55;;;0.38;;
45392;SDS011;31129;44.810;10.334;2022-11-04T11:43:51;4.78;;;0.22;;
45392;SDS011;31129;44.810;10.334;2022-11-04T11:46:28;1.55;;;0.30;;
45392;SDS011;31129;44.810;10.334;2022-11-04T11:48:57;0.32;;;0.32;;
45392;SDS011;31129;44.810;10.334;2022-11-04T11:51:29;0.38;;;0.32;;
45392;SDS011;31129;44.810;10.334;2022-11-04T11:56:38;0.30;;;0.30;;
45392;SDS011;31129;44.810;10.334;2022-11-04T11:59:13;0.30;;;0.30;;
45392;SDS011;31129;44.810;10.334;2022-11-04T12:01:45;0.30;;;0.30;;
45392;SDS011;31129;44.810;10.334;2022-11-04T12:04:15;1.17;;;0.38;;
45392;SDS011;31129;44.810;10.334;2022-11-04T12:09:34;2.80;;;0.40;;
45392;SDS011;31129;44.810;10.334;2022-11-04T12:12:07;0.63;;;0.40;;
45392;SDS011;31129;44.810;10.334;2022-11-04T12:17:14;0.50;;;0.50;;
45392;SDS011;31129;44.810;10.334;2022-11-04T12:19:49;0.30;;;0.30;;
45392;SDS011;31129;44.810;10.334;2022-11-04T12:28:21;0.40;;;0.40;;
45392;SDS011;31129;44.810;10.334;2022-11-04T12:33:38;1.13;;;0.60;;
45392;SDS011;31129;44.810;10.334;2022-11-04T12:39:19;0.45;;;0.38;;
45392;SDS011;31129;44.810;10.334;2022-11-04T12:42:04;3.50;;;0.63;;
45392;SDS011;31129;44.810;10.334;2022-11-04T12:44:46;1.02;;;0.47;;
45392;SDS011;31129;44.810;10.334;2022-11-04T12:47:36;1.20;;;0.60;;
45392;SDS011;31129;44.810;10.334;2022-11-04T12:55:41;0.93;;;0.40;;
45392;SDS011;31129;44.810;10.334;2022-11-04T13:01:05;3.75;;;0.55;;
45392;SDS011;31129;44.810;10.334;2022-11-04T13:09:23;0.50;;;0.30;;
45392;SDS011;31129;44.810;10.334;2022-11-04T13:12:02;1.10;;;0.70;;
45392;SDS011;31129;44.810;10.334;2022-11-04T13:14:38;1.08;;;0.20;;
45392;SDS011;31129;44.810;10.334;2022-11-04T13:17:09;3.38;;;0.50;;
45392;SDS011;31129;44.810;10.334;2022-11-04T13:19:49;0.30;;;0.30;;
45392;SDS011;31129;44.810;10.334;2022-11-04T13:22:24;2.15;;;0.60;;
45392;SDS011;31129;44.810;10.334;2022-11-04T13:24:54;0.80;;;0.35;;
45392;SDS011;31129;44.810;10.334;2022-11-04T13:27:25;0.65;;;0.65;;
45392;SDS011;31129;44.810;10.334;2022-11-04T13:30:19;0.70;;;0.65;;
45392;SDS011;31129;44.810;10.334;2022-11-04T13:35:32;0.80;;;0.55;;
45392;SDS011;31129;44.810;10.334;2022-11-04T13:43:42;0.40;;;0.40;;
45392;SDS011;31129;44.810;10.334;2022-11-04T13:46:16;0.30;;;0.30;;
45392;SDS011;31129;44.810;10.334;2022-11-04T13:48:50;0.40;;;0.40;;
45392;SDS011;31129;44.810;10.334;2022-11-04T13:52:00;0.30;;;0.30;;
45392;SDS011;31129;44.810;10.334;2022-11-04T13:57:16;1.50;;;0.40;;
45392;SDS011;31129;44.810;10.334;2022-11-04T14:00:06;1.88;;;0.43;;
45392;SDS011;31129;44.810;10.334;2022-11-04T14:16:04;0.85;;;0.40;;
45392;SDS011;31129;44.810;10.334;2022-11-04T14:18:31;1.13;;;0.65;;
45392;SDS011;31129;44.810;10.334;2022-11-04T14:23:30;0.40;;;0.40;;
45392;SDS011;31129;44.810;10.334;2022-11-04T14:25:57;0.50;;;0.50;;
45392;SDS011;31129;44.810;10.334;2022-11-04T14:28:26;0.40;;;0.40;;
45392;SDS011;31129;44.810;10.334;2022-11-04T14:33:40;1.02;;;0.50;;
45392;SDS011;31129;44.810;10.334;2022-11-04T14:39:03;0.30;;;0.30;;
45392;SDS011;31129;44.810;10.334;2022-11-04T14:41:53;2.13;;;0.43;;
45392;SDS011;31129;44.810;10.334;2022-11-04T14:46:46;0.50;;;0.50;;
45392;SDS011;31129;44.810;10.334;2022-11-04T14:51:49;0.85;;;0.55;;
45392;SDS011;31129;44.810;10.334;2022-11-04T14:54:18;0.77;;;0.50;;
45392;SDS011;31129;44.810;10.334;2022-11-04T14:56:45;2.25;;;0.47;;
45392;SDS011;31129;44.810;10.334;2022-11-04T14:59:19;0.45;;;0.45;;
45392;SDS011;31129;44.810;10.334;2022-11-04T15:01:46;0.63;;;0.50;;
45392;SDS011;31129;44.810;10.334;2022-11-04T15:04:23;0.90;;;0.50;;
45392;SDS011;31129;44.810;10.334;2022-11-04T15:06:54;2.33;;;0.70;;
45392;SDS011;31129;44.810;10.334;2022-11-04T15:09:21;1.00;;;0.50;;
45392;SDS011;31129;44.810;10.334;2022-11-04T15:11:49;1.25;;;0.60;;
45392;SDS011;31129;44.810;10.334;2022-11-04T15:14:40;0.60;;;0.50;;
45392;SDS011;31129;44.810;10.334;2022-11-04T15:17:05;1.05;;;0.82;;
45392;SDS011;31129;44.810;10.334;2022-11-04T15:19:32;0.95;;;0.32;;
45392;SDS011;31129;44.810;10.334;2022-11-04T15:24:26;2.80;;;0.70;;
45392;SDS011;31129;44.810;10.334;2022-11-04T15:26:52;1.33;;;0.60;;
45392;SDS011;31129;44.810;10.334;2022-11-04T15:29:21;0.40;;;0.40;;
45392;SDS011;31129;44.810;10.334;2022-11-04T15:31:54;4.50;;;0.60;;
45392;SDS011;31129;44.810;10.334;2022-11-04T15:34:22;1.17;;;0.50;;
45392;SDS011;31129;44.810;10.334;2022-11-04T15:36:50;2.40;;;0.50;;
45392;SDS011;31129;44.810;10.334;2022-11-04T15:39:25;2.92;;;0.60;;
45392;SDS011;31129;44.810;10.334;2022-11-04T15:41:56;2.10;;;0.75;;
45392;SDS011;31129;44.810;10.334;2022-11-04T15:44:47;0.93;;;0.47;;
45392;SDS011;31129;44.810;10.334;2022-11-04T15:49:47;0.55;;;0.55;;
45392;SDS011;31129;44.810;10.334;2022-11-04T15:52:16;3.78;;;0.47;;
45392;SDS011;31129;44.810;10.334;2022-11-04T15:54:45;1.58;;;0.70;;
45392;SDS011;31129;44.810;10.334;2022-11-04T15:57:14;0.88;;;0.60;;
45392;SDS011;31129;44.810;10.334;2022-11-04T16:02:23;3.55;;;1.73;;
45392;SDS011;31129;44.810;10.334;2022-11-04T16:07:38;0.98;;;0.88;;
45392;SDS011;31129;44.810;10.334;2022-11-04T16:12:45;3.38;;;0.90;;
45392;SDS011;31129;44.810;10.334;2022-11-04T16:17:56;1.85;;;1.00;;
45392;SDS011;31129;44.810;10.334;2022-11-04T16:20:22;4.80;;;1.05;;
45392;SDS011;31129;44.810;10.334;2022-11-04T16:22:53;5.47;;;1.25;;
45392;SDS011;31129;44.810;10.334;2022-11-04T16:25:21;4.85;;;1.13;;
45392;SDS011;31129;44.810;10.334;2022-11-04T16:27:48;3.40;;;1.35;;
45392;SDS011;31129;44.810;10.334;2022-11-04T16:32:41;2.13;;;1.02;;
45392;SDS011;31129;44.810;10.334;2022-11-04T16:37:41;3.60;;;1.77;;
45392;SDS011;31129;44.810;10.334;2022-11-04T16:40:06;4.20;;;1.50;;
45392;SDS011;31129;44.810;10.334;2022-11-04T16:42:32;6.03;;;1.80;;
45392;SDS011;31129;44.810;10.334;2022-11-04T16:44:59;4.50;;;1.50;;
45392;SDS011;31129;44.810;10.334;2022-11-04T16:47:26;12.82;;;1.70;;
45392;SDS011;31129;44.810;10.334;2022-11-04T16:49:58;3.17;;;1.45;;
45392;SDS011;31129;44.810;10.334;2022-11-04T16:52:25;5.70;;;1.58;;
45392;SDS011;31129;44.810;10.334;2022-11-04T16:54:51;5.13;;;1.95;;
45392;SDS011;31129;44.810;10.334;2022-11-04T16:57:20;11.88;;;2.05;;
45392;SDS011;31129;44.810;10.334;2022-11-04T16:59:47;9.38;;;1.90;;
45392;SDS011;31129;44.810;10.334;2022-11-04T17:02:17;6.07;;;2.08;;
45392;SDS011;31129;44.810;10.334;2022-11-04T17:04:54;6.45;;;2.33;;
45392;SDS011;31129;44.810;10.334;2022-11-04T17:07:20;4.88;;;2.40;;
45392;SDS011;31129;44.810;10.334;2022-11-04T17:09:46;9.95;;;2.00;;
45392;SDS011;31129;44.810;10.334;2022-11-04T17:12:11;6.40;;;2.45;;
45392;SDS011;31129;44.810;10.334;2022-11-04T17:14:37;4.70;;;1.90;;
45392;SDS011;31129;44.810;10.334;2022-11-04T17:17:03;3.95;;;1.60;;
45392;SDS011;31129;44.810;10.334;2022-11-04T17:19:29;12.13;;;1.83;;
45392;SDS011;31129;44.810;10.334;2022-11-04T17:21:56;4.10;;;1.40;;
45392;SDS011;31129;44.810;10.334;2022-11-04T17:24:23;9.23;;;1.83;;
45392;SDS011;31129;44.810;10.334;2022-11-04T17:26:49;4.60;;;1.70;;
45392;SDS011;31129;44.810;10.334;2022-11-04T17:29:14;2.95;;;1.77;;
45392;SDS011;31129;44.810;10.334;2022-11-04T17:31:40;5.50;;;1.95;;
45392;SDS011;31129;44.810;10.334;2022-11-04T17:34:05;4.88;;;2.50;;